sensor_id;sensor_type;location;lat;lon;timestamp;P1;durP1;ratioP1;P2;durP2;ratioP2
1523;SDS011;755;53.658;10.118;2023-07-20T00:03:36;1.50;;;1.20;;
1523;SDS011;755;53.658;10.118;2023-07-20T00:13:40;3.03;;;1.27;;
1523;SDS011;755;53.658;10.118;2023-07-20T00:23:41;2.45;;;1.17;;
1523;SDS011;755;53.658;10.118;2023-07-20T00:33:45;2.35;;;1.35;;
1523;SDS011;755;53.658;10.118;2023-07-20T00:43:47;1.90;;;1.30;;
1523;SDS011;755;53.658;10.118;2023-07-20T00:53:50;2.55;;;1.65;;
1523;SDS011;755;53.658;10.118;2023-07-20T01:03:52;3.67;;;2.13;;
1523;SDS011;755;53.658;10.118;2023-07-20T01:13:56;6.57;;;2.88;;
1523;SDS011;755;53.658;10.118;2023-07-20T01:34:27;5.85;;;2.53;;
1523;SDS011;755;53.658;10.118;2023-07-20T01:44:30;4.28;;;2.55;;
1523;SDS011;755;53.658;10.118;2023-07-20T01:54:33;3.63;;;2.88;;
1523;SDS011;755;53.658;10.118;2023-07-20T02:04:35;6.45;;;3.28;;
1523;SDS011;755;53.658;10.118;2023-07-20T02:14:39;6.70;;;3.33;;
1523;SDS011;755;53.658;10.118;2023-07-20T02:24:41;5.32;;;4.15;;
1523;SDS011;755;53.658;10.118;2023-07-20T02:34:44;8.38;;;4.68;;
1523;SDS011;755;53.658;10.118;2023-07-20T02:44:46;9.20;;;4.78;;
1523;SDS011;755;53.658;10.118;2023-07-20T02:54:49;10.20;;;5.43;;
1523;SDS011;755;53.658;10.118;2023-07-20T03:04:51;9.80;;;5.25;;
1523;SDS011;755;53.658;10.118;2023-07-20T03:14:55;11.38;;;5.82;;
1523;SDS011;755;53.658;10.118;2023-07-20T03:24:58;12.40;;;5.47;;
1523;SDS011;755;53.658;10.118;2023-07-20T03:35:01;9.70;;;6.05;;
1523;SDS011;755;53.658;10.118;2023-07-20T03:45:03;11.93;;;6.82;;
1523;SDS011;755;53.658;10.118;2023-07-20T03:55:08;13.00;;;6.28;;
1523;SDS011;755;53.658;10.118;2023-07-20T04:05:10;8.48;;;6.38;;
1523;SDS011;755;53.658;10.118;2023-07-20T04:15:13;10.77;;;6.55;;
1523;SDS011;755;53.658;10.118;2023-07-20T04:25:15;7.80;;;5.85;;
1523;SDS011;755;53.658;10.118;2023-07-20T04:35:44;10.52;;;5.65;;
1523;SDS011;755;53.658;10.118;2023-07-20T04:45:48;9.65;;;5.20;;
1523;SDS011;755;53.658;10.118;2023-07-20T04:55:51;8.15;;;5.07;;
1523;SDS011;755;53.658;10.118;2023-07-20T05:05:54;5.40;;;4.18;;
1523;SDS011;755;53.658;10.118;2023-07-20T05:15:57;7.95;;;4.78;;
1523;SDS011;755;53.658;10.118;2023-07-20T05:25:59;6.82;;;3.30;;
1523;SDS011;755;53.658;10.118;2023-07-20T05:36:03;3.58;;;2.60;;
1523;SDS011;755;53.658;10.118;2023-07-20T05:46:05;3.40;;;2.40;;
1523;SDS011;755;53.658;10.118;2023-07-20T05:56:08;3.63;;;2.05;;
1523;SDS011;755;53.658;10.118;2023-07-20T06:06:10;2.67;;;1.65;;
1523;SDS011;755;53.658;10.118;2023-07-20T06:16:14;4.72;;;1.15;;
1523;SDS011;755;53.658;10.118;2023-07-20T06:26:16;3.90;;;1.20;;
1523;SDS011;755;53.658;10.118;2023-07-20T06:36:19;2.17;;;0.95;;
1523;SDS011;755;53.658;10.118;2023-07-20T06:46:21;3.10;;;0.68;;
1523;SDS011;755;53.658;10.118;2023-07-20T06:56:24;3.45;;;0.85;;
1523;SDS011;755;53.658;10.118;2023-07-20T07:06:26;2.00;;;1.00;;
1523;SDS011;755;53.658;10.118;2023-07-20T07:16:30;3.20;;;0.80;;
1523;SDS011;755;53.658;10.118;2023-07-20T07:26:31;4.03;;;0.88;;
1523;SDS011;755;53.658;10.118;2023-07-20T07:36:35;7.30;;;1.73;;
1523;SDS011;755;53.658;10.118;2023-07-20T07:46:37;5.20;;;1.02;;
1523;SDS011;755;53.658;10.118;2023-07-20T07:56:40;3.40;;;1.20;;
1523;SDS011;755;53.658;10.118;2023-07-20T08:06:43;5.28;;;1.20;;
1523;SDS011;755;53.658;10.118;2023-07-20T08:16:47;3.42;;;1.60;;
1523;SDS011;755;53.658;10.118;2023-07-20T08:26:49;7.68;;;1.55;;
1523;SDS011;755;53.658;10.118;2023-07-20T08:36:52;6.15;;;1.85;;
1523;SDS011;755;53.658;10.118;2023-07-20T08:46:54;3.65;;;1.08;;
1523;SDS011;755;53.658;10.118;2023-07-20T08:56:58;5.60;;;1.25;;
1523;SDS011;755;53.658;10.118;2023-07-20T09:07:03;10.40;;;1.30;;
1523;SDS011;755;53.658;10.118;2023-07-20T09:17:06;5.40;;;0.63;;
1523;SDS011;755;53.658;10.118;2023-07-20T09:27:14;4.68;;;0.90;;
1523;SDS011;755;53.658;10.118;2023-07-20T09:37:20;3.03;;;0.60;;
1523;SDS011;755;53.658;10.118;2023-07-20T09:47:23;1.92;;;0.50;;
1523;SDS011;755;53.658;10.118;2023-07-20T09:57:28;2.47;;;0.90;;
1523;SDS011;755;53.658;10.118;2023-07-20T10:07:31;1.55;;;0.50;;
1523;SDS011;755;53.658;10.118;2023-07-20T10:17:35;2.28;;;0.47;;
1523;SDS011;755;53.658;10.118;2023-07-20T10:27:41;3.42;;;0.43;;
1523;SDS011;755;53.658;10.118;2023-07-20T10:37:48;1.20;;;0.57;;
1523;SDS011;755;53.658;10.118;2023-07-20T10:47:52;1.40;;;0.50;;
1523;SDS011;755;53.658;10.118;2023-07-20T10:58:07;4.22;;;0.50;;
1523;SDS011;755;53.658;10.118;2023-07-20T11:08:12;3.45;;;0.50;;
1523;SDS011;755;53.658;10.118;2023-07-20T11:18:15;2.03;;;0.45;;
1523;SDS011;755;53.658;10.118;2023-07-20T11:28:17;3.30;;;0.45;;
1523;SDS011;755;53.658;10.118;2023-07-20T11:38:20;2.42;;;0.70;;
1523;SDS011;755;53.658;10.118;2023-07-20T11:48:23;1.27;;;0.30;;
1523;SDS011;755;53.658;10.118;2023-07-20T11:58:27;2.95;;;0.30;;
1523;SDS011;755;53.658;10.118;2023-07-20T12:08:29;3.80;;;0.82;;
1523;SDS011;755;53.658;10.118;2023-07-20T12:18:35;3.65;;;0.70;;
1523;SDS011;755;53.658;10.118;2023-07-20T12:28:40;5.78;;;1.38;;
1523;SDS011;755;53.658;10.118;2023-07-20T12:38:44;2.22;;;0.50;;
1523;SDS011;755;53.658;10.118;2023-07-20T12:48:46;3.00;;;0.60;;
1523;SDS011;755;53.658;10.118;2023-07-20T12:58:49;3.65;;;0.93;;
1523;SDS011;755;53.658;10.118;2023-07-20T13:08:51;6.47;;;1.23;;
1523;SDS011;755;53.658;10.118;2023-07-20T13:18:57;4.80;;;0.85;;
1523;SDS011;755;53.658;10.118;2023-07-20T13:28:59;3.85;;;0.65;;
1523;SDS011;755;53.658;10.118;2023-07-20T13:39:02;4.00;;;1.40;;
1523;SDS011;755;53.658;10.118;2023-07-20T13:49:05;7.75;;;0.90;;
1523;SDS011;755;53.658;10.118;2023-07-20T13:59:08;5.55;;;0.90;;
1523;SDS011;755;53.658;10.118;2023-07-20T14:09:10;3.65;;;0.80;;
1523;SDS011;755;53.658;10.118;2023-07-20T14:19:13;2.92;;;0.57;;
1523;SDS011;755;53.658;10.118;2023-07-20T14:29:15;2.58;;;0.60;;
1523;SDS011;755;53.658;10.118;2023-07-20T14:39:19;2.92;;;0.68;;
1523;SDS011;755;53.658;10.118;2023-07-20T14:49:22;4.85;;;0.52;;
1523;SDS011;755;53.658;10.118;2023-07-20T14:59:25;4.95;;;0.50;;
1523;SDS011;755;53.658;10.118;2023-07-20T15:09:27;2.25;;;0.60;;
1523;SDS011;755;53.658;10.118;2023-07-20T15:19:31;1.17;;;0.77;;
1523;SDS011;755;53.658;10.118;2023-07-20T15:29:33;2.20;;;0.50;;
1523;SDS011;755;53.658;10.118;2023-07-20T15:39:37;3.05;;;1.08;;
1523;SDS011;755;53.658;10.118;2023-07-20T15:49:39;8.38;;;1.42;;
1523;SDS011;755;53.658;10.118;2023-07-20T15:59:43;5.85;;;1.20;;
1523;SDS011;755;53.658;10.118;2023-07-20T16:09:45;1.95;;;0.80;;
1523;SDS011;755;53.658;10.118;2023-07-20T16:19:48;3.38;;;0.88;;
1523;SDS011;755;53.658;10.118;2023-07-20T16:29:50;7.68;;;0.77;;
1523;SDS011;755;53.658;10.118;2023-07-20T16:39:53;5.03;;;0.98;;
1523;SDS011;755;53.658;10.118;2023-07-20T16:49:55;2.03;;;0.63;;
1523;SDS011;755;53.658;10.118;2023-07-20T16:59:58;8.63;;;0.82;;
1523;SDS011;755;53.658;10.118;2023-07-20T17:10:00;3.25;;;0.90;;
1523;SDS011;755;53.658;10.118;2023-07-20T17:20:04;4.60;;;1.17;;
1523;SDS011;755;53.658;10.118;2023-07-20T17:30:10;4.63;;;1.90;;
1523;SDS011;755;53.658;10.118;2023-07-20T17:40:14;1.80;;;0.70;;
1523;SDS011;755;53.658;10.118;2023-07-20T17:50:18;6.97;;;0.90;;
1523;SDS011;755;53.658;10.118;2023-07-20T18:00:21;6.38;;;1.00;;
1523;SDS011;755;53.658;10.118;2023-07-20T18:10:24;4.28;;;1.08;;
1523;SDS011;755;53.658;10.118;2023-07-20T18:20:27;3.63;;;0.90;;
1523;SDS011;755;53.658;10.118;2023-07-20T18:30:29;4.13;;;0.77;;
1523;SDS011;755;53.658;10.118;2023-07-20T18:40:34;2.17;;;0.63;;
1523;SDS011;755;53.658;10.118;2023-07-20T18:50:36;1.92;;;0.70;;
1523;SDS011;755;53.658;10.118;2023-07-20T19:00:39;3.55;;;0.73;;
1523;SDS011;755;53.658;10.118;2023-07-20T19:10:41;5.10;;;0.95;;
1523;SDS011;755;53.658;10.118;2023-07-20T19:20:44;5.05;;;0.70;;
1523;SDS011;755;53.658;10.118;2023-07-20T19:30:47;4.45;;;0.80;;
1523;SDS011;755;53.658;10.118;2023-07-20T19:40:51;4.75;;;1.55;;
1523;SDS011;755;53.658;10.118;2023-07-20T19:50:54;4.53;;;0.85;;
1523;SDS011;755;53.658;10.118;2023-07-20T20:00:57;1.42;;;0.63;;
1523;SDS011;755;53.658;10.118;2023-07-20T20:11:00;7.78;;;0.90;;
1523;SDS011;755;53.658;10.118;2023-07-20T20:21:04;7.65;;;0.95;;
1523;SDS011;755;53.658;10.118;2023-07-20T20:31:06;2.65;;;0.70;;
1523;SDS011;755;53.658;10.118;2023-07-20T20:41:09;3.53;;;1.55;;
1523;SDS011;755;53.658;10.118;2023-07-20T20:51:11;5.90;;;1.17;;
1523;SDS011;755;53.658;10.118;2023-07-20T21:01:14;1.65;;;0.68;;
1523;SDS011;755;53.658;10.118;2023-07-20T21:11:16;2.45;;;0.98;;
1523;SDS011;755;53.658;10.118;2023-07-20T21:21:21;0.90;;;0.55;;
1523;SDS011;755;53.658;10.118;2023-07-20T21:31:23;2.20;;;0.57;;
1523;SDS011;755;53.658;10.118;2023-07-20T21:41:26;9.10;;;1.15;;
1523;SDS011;755;53.658;10.118;2023-07-20T21:51:29;3.67;;;0.90;;
1523;SDS011;755;53.658;10.118;2023-07-20T22:01:32;3.92;;;1.00;;
1523;SDS011;755;53.658;10.118;2023-07-20T22:11:34;2.60;;;0.60;;
1523;SDS011;755;53.658;10.118;2023-07-20T22:21:37;3.58;;;0.82;;
1523;SDS011;755;53.658;10.118;2023-07-20T22:31:39;1.20;;;0.68;;
1523;SDS011;755;53.658;10.118;2023-07-20T22:41:43;3.38;;;0.80;;
1523;SDS011;755;53.658;10.118;2023-07-20T22:51:45;0.98;;;0.85;;
1523;SDS011;755;53.658;10.118;2023-07-20T23:01:49;2.72;;;0.68;;
1523;SDS011;755;53.658;10.118;2023-07-20T23:11:51;3.15;;;1.17;;
1523;SDS011;755;53.658;10.118;2023-07-20T23:21:55;5.03;;;1.15;;
1523;SDS011;755;53.658;10.118;2023-07-20T23:31:58;1.85;;;0.95;;
